METAR / TAF

La liste des METAR et des TAF n’est pas destinée pour un briefing météo pour des raisons techniques (disponibilité, cycle de renouvellement). Il faut plutôt utiliser le skybriefing de Skyguide ou le TAMSI (plateforme de self-briefing météo conçue par MétéoSuisse pour les entreprises dans le domaine de l’aéronautique, questions et demandes d’informations à 

Formulaire de contact

 

METAR Suisse

METAR     LSZH 211750Z 00000KT CAVOK 25/06 Q1017 NOSIG=
METAR     LSZH 211820Z 00000KT 9999 FEW065 SCT300 23/08 Q1017 NOSIG=
METAR     LSGG 211750Z 05003KT 9999 FEW065 24/06 Q1017 NOSIG=
METAR     LSGG 211820Z VRB02KT 9999 FEW060 21/08 Q1017 NOSIG=
METAR     LFSB 211800Z 36002KT CAVOK 26/05 Q1016 NOSIG=
METAR     LSZB 211750Z 24003KT 9999 FEW035 22/09 Q1017 NOSIG=
METAR     LSZB 211820Z VRB02KT CAVOK 20/09 Q1017 NOSIG=
METAR     LSZA 211750Z 21006KT CAVOK 23/09 Q1017 NOSIG=
METAR     LSZA 211820Z 18003KT 140V210 CAVOK 22/10 Q1017 NOSIG=
METAR     LSZG 211750Z AUTO 01002KT CAVOK 23/10 Q1017=
METAR     LSZG 211820Z AUTO VRB02KT CAVOK 19/11 Q1017=
METAR     LSZR 211750Z VRB02KT CAVOK 25/06 Q1018 NOSIG RMK K=
METAR     LSZR 211820Z AUTO 19002KT CAVOK 18/11 Q1017=
METAR     LSGS 211750Z AUTO 26008KT CAVOK 23/02 Q1017=
METAR     LSGS 211820Z AUTO VRB02KT CAVOK 23/00 Q1018=
METAR     LSGC 211750Z VRB01KT CAVOK 18/08 Q1020=
METAR     LSGC 211820Z AUTO 32002KT CAVOK 16/09 Q1020=
METAR     LSZC 211750Z AUTO 28005KT 240V310 CAVOK 21/07 Q1018=
METAR     LSZC 211820Z AUTO 28003KT 230V360 CAVOK 21/04 Q1018=
METAR     LSZL 211750Z AUTO 00000KT 9000NDV NCD 25/09 Q1016 RMK=
METAR     LSZL 211820Z NIL=
METAR     LSZS 211750Z AUTO VRB01KT CAVOK 09/M01 Q1024=
METAR     LSZS 211820Z AUTO 19004KT CAVOK 08/M01 Q1024=
METAR     LSMA 211750Z AUTO 30003KT 250V010 9999NDV NCD 20/10 Q1017
               RMK=
METAR     LSMA 211820Z NIL=
METAR     LSMD 211750Z AUTO 00000KT 9999NDV NCD 25/09 Q1017 RMK=
METAR     LSMD 211820Z NIL=
METAR     LSME 211750Z AUTO 00000KT 9999NDV NCD 25/08 Q1017 RMK=
METAR     LSME 211820Z NIL=
METAR RRA LSMM 211750Z AUTO 09007KT 9999NDV NCD 21/03 Q1018 RMK=
METAR     LSMM 211820Z NIL=
METAR     LSMP 211750Z AUTO 34002KT 9999NDV NCD 23/11 Q1017 RMK=
METAR     LSMP 211820Z NIL=
METAR     LSMS 211750Z AUTO 26008KT CAVOK 23/02 Q1017=
METAR     LSMS 211820Z AUTO VRB02KT CAVOK 23/00 Q1018=
Actualisé le samedi 21 avril 2018 à 20h42

TAF Suisse

TAF     LSZH 211725Z 2118/2224 VRB03KT CAVOK TX27/2215Z TN09/2205Z
             TEMPO 2209/2219 23008KT=
TAF     LSGG 211725Z 2118/2224 VRB03KT 9999 FEW060 TX28/2215Z
             TN10/2206Z BECMG 2210/2212 22010KT BECMG 2218/2221
             VRB03KT=
TAF     LFSB 211700Z 2118/2218 15004KT CAVOK BECMG 2212/2214
             22010KT=
TAF     LSGS 211425Z 2115/2124 25007KT CAVOK=
TAF     LSZA 211425Z 2115/2124 19005KT CAVOK=
TAF     LSZB 211425Z 2115/2124 VRB03KT CAVOK TEMPO 2115/2118 9999
             FEW060=
TAF     LSZG 211425Z 2115/2124 VRB01KT CAVOK TEMPO 2115/2118 9999
             FEW055 PROB30 TEMPO 2115/2118 FEW050TCU=
TAF     LSZR 211425Z 2115/2124 VRB03KT CAVOK=
TAF     LSGC 211425Z 2115/2124 VRB03KT CAVOK=
TAF     LSZS 211425Z 2115/2124 28004KT CAVOK TX18/2115Z=
TAF     LSMA 211625Z 2117/2223 VRB02KT CAVOK TEMPO 2206/2223 9999
             SCT100 PROB40 2210/2216 03012KT PROB30 TEMPO
             2213/2217 SHRA SCT055TCU=
TAF     LSMD 211625Z 2117/2223 VRB02KT CAVOK TEMPO 2207/2223 9999
             FEW100=
TAF     LSME 211625Z 2117/2223 VRB03KT CAVOK TEMPO 2205/2223 9999
             FEW100 PROB30 TEMPO 2213/2217 SHRA SCT050TCU=
TAF     LSMM 211625Z 2117/2223 VRB02KT CAVOK TEMPO 2210/2223 9999
             FEW100 PROB40 2210/2216 27012KT PROB30 TEMPO
             2213/2217 SHRA SCT060TCU=
TAF     LSMP 211625Z 2117/2223 VRB02KT CAVOK BECMG 2210/2212
             25010KT=
Actualisé le samedi 21 avril 2018 à 20h41